Time;durP1;ratioP1;P1;durP2;ratioP2;P2;SDS_P1;SDS_P2;PMS_P1;PMS_P2;Temp;Humidity;BMP_temperature;BMP_pressure;BME280_temperature;BME280_humidity;BME280_pressure;Samples;Min_cycle;Max_cycle;Signal;HPM_P1;HPM_P2
2023/08/25 00:38:58;;;;;;;3.75;3.60;;;;;;;;;;7400204;19;20196;-87
2023/08/25 01:37:53;;;;;;;0.70;0.70;;;;;;;;;;7382185;19;20709;-87
2023/08/25 01:44:11;;;;;;;1.08;1.02;;;;;;;;;;7399539;19;21192;-88
2023/08/25 01:46:54;;;;;;;0.90;0.90;;;;;;;;;;7397874;19;20379;-91
2023/08/25 01:49:38;;;;;;;0.52;0.52;;;;;;;;;;7394270;19;20363;-89
2023/08/25 01:55:56;;;;;;;0.47;0.47;;;;;;;;;;7394956;19;20372;-91
2023/08/25 01:58:23;;;;;;;0.60;0.60;;;;;;;;;;7396107;19;20451;-91
2023/08/25 02:00:50;;;;;;;0.90;0.90;;;;;;;;;;7393465;19;20365;-92
2023/08/25 02:03:17;;;;;;;1.27;0.75;;;;;;;;;;7396951;19;20431;-91
2023/08/25 02:05:44;;;;;;;0.83;0.83;;;;;;;;;;7395798;19;20362;-91
2023/08/25 02:08:11;;;;;;;0.60;0.60;;;;;;;;;;7393604;19;20369;-91
2023/08/25 02:10:38;;;;;;;0.93;0.68;;;;;;;;;;7400129;19;20440;-90
2023/08/25 02:13:04;;;;;;;0.70;0.70;;;;;;;;;;7395982;19;20353;-88
2023/08/25 02:15:31;;;;;;;1.60;1.00;;;;;;;;;;7394290;19;20752;-88
2023/08/25 02:17:58;;;;;;;0.73;0.73;;;;;;;;;;7397149;19;20340;-90
2023/08/25 02:20:28;;;;;;;0.77;0.77;;;;;;;;;;7400099;19;20450;-89
2023/08/25 02:23:01;;;;;;;0.70;0.70;;;;;;;;;;7405928;19;20348;-89
2023/08/25 02:25:28;;;;;;;0.57;0.57;;;;;;;;;;7401500;19;20377;-89
2023/08/25 02:27:56;;;;;;;0.40;0.40;;;;;;;;;;7403072;19;20372;-89
2023/08/25 02:30:23;;;;;;;0.82;0.82;;;;;;;;;;7401950;19;20922;-87
2023/08/25 02:32:50;;;;;;;0.70;0.70;;;;;;;;;;7403786;19;20914;-87
2023/08/25 02:35:16;;;;;;;0.50;0.50;;;;;;;;;;7401067;19;20882;-89
2023/08/25 02:37:59;;;;;;;0.40;0.40;;;;;;;;;;7401596;19;20339;-89
2023/08/25 02:40:27;;;;;;;0.50;0.50;;;;;;;;;;7402834;19;20385;-88
2023/08/25 02:42:55;;;;;;;1.58;1.25;;;;;;;;;;7401593;19;20352;-88
2023/08/25 02:45:23;;;;;;;0.70;0.70;;;;;;;;;;7402973;19;20890;-90
2023/08/25 02:47:50;;;;;;;0.57;0.57;;;;;;;;;;7401830;19;20347;-90
2023/08/25 02:50:18;;;;;;;0.52;0.52;;;;;;;;;;7402950;19;20925;-89
2023/08/25 02:52:45;;;;;;;0.80;0.70;;;;;;;;;;7401025;19;20395;-88
2023/08/25 02:55:16;;;;;;;0.50;0.50;;;;;;;;;;7400501;19;20348;-89
2023/08/25 02:57:43;;;;;;;0.55;0.55;;;;;;;;;;7402161;19;22426;-88
2023/08/25 03:00:11;;;;;;;0.53;0.53;;;;;;;;;;7402094;19;20907;-89
2023/08/25 03:02:38;;;;;;;0.60;0.60;;;;;;;;;;7404017;19;20965;-88
2023/08/25 03:05:11;;;;;;;1.10;1.00;;;;;;;;;;7400201;19;20336;-87
2023/08/25 03:07:38;;;;;;;0.82;0.80;;;;;;;;;;7400703;19;20939;-87
2023/08/25 03:10:06;;;;;;;1.80;1.00;;;;;;;;;;7402847;19;20377;-88
2023/08/25 03:12:32;;;;;;;0.50;0.50;;;;;;;;;;7401028;19;20400;-88
2023/08/25 03:14:59;;;;;;;0.47;0.47;;;;;;;;;;7402997;19;20352;-88
2023/08/25 03:17:26;;;;;;;0.97;0.97;;;;;;;;;;7401211;19;20411;-89
2023/08/25 03:19:53;;;;;;;0.60;0.60;;;;;;;;;;7404066;19;20356;-88
2023/08/25 03:22:20;;;;;;;0.80;0.70;;;;;;;;;;7401193;19;20356;-87
2023/08/25 03:24:46;;;;;;;1.40;0.93;;;;;;;;;;7399270;19;20368;-88
2023/08/25 03:27:14;;;;;;;0.80;0.80;;;;;;;;;;7399528;19;20370;-87
2023/08/25 03:29:44;;;;;;;0.60;0.60;;;;;;;;;;7399778;19;20356;-88
2023/08/25 03:32:10;;;;;;;0.82;0.82;;;;;;;;;;7395747;19;20420;-88
2023/08/25 03:34:37;;;;;;;1.50;0.70;;;;;;;;;;7399998;19;20949;-89
2023/08/25 03:37:05;;;;;;;0.60;0.60;;;;;;;;;;7396650;19;20352;-88
2023/08/25 03:39:32;;;;;;;0.57;0.57;;;;;;;;;;7399776;19;20899;-87
2023/08/25 03:41:59;;;;;;;0.50;0.50;;;;;;;;;;7393605;19;21079;-86
2023/08/25 03:44:26;;;;;;;0.70;0.70;;;;;;;;;;7397694;19;20360;-88
2023/08/25 03:46:53;;;;;;;0.50;0.50;;;;;;;;;;7396697;19;20348;-87
2023/08/25 03:49:20;;;;;;;2.00;1.10;;;;;;;;;;7394553;19;20424;-90
2023/08/25 03:51:47;;;;;;;1.60;0.80;;;;;;;;;;7397800;19;20348;-86
2023/08/25 03:54:13;;;;;;;0.67;0.67;;;;;;;;;;7395416;19;20344;-89
2023/08/25 03:56:40;;;;;;;0.63;0.63;;;;;;;;;;7397942;19;20783;-88
2023/08/25 03:59:08;;;;;;;0.90;0.90;;;;;;;;;;7392311;19;20344;-88
2023/08/25 04:01:35;;;;;;;0.43;0.43;;;;;;;;;;7395609;19;20352;-87
2023/08/25 04:04:02;;;;;;;0.60;0.60;;;;;;;;;;7394436;19;20356;-88
2023/08/25 04:06:28;;;;;;;0.47;0.47;;;;;;;;;;7398313;19;20329;-88
2023/08/25 04:08:55;;;;;;;2.30;1.10;;;;;;;;;;7392596;19;20412;-87
2023/08/25 04:11:22;;;;;;;0.63;0.63;;;;;;;;;;7395847;19;20351;-87
2023/08/25 04:13:48;;;;;;;0.50;0.50;;;;;;;;;;7397002;19;20364;-88
2023/08/25 04:16:15;;;;;;;1.30;1.20;;;;;;;;;;7397327;19;20353;-88
2023/08/25 04:18:41;;;;;;;0.65;0.65;;;;;;;;;;7394070;19;20890;-89
2023/08/25 04:21:08;;;;;;;4.10;0.82;;;;;;;;;;7395845;19;20420;-89
2023/08/25 04:23:35;;;;;;;0.70;0.70;;;;;;;;;;7395100;19;20361;-89
2023/08/25 04:26:02;;;;;;;0.80;0.80;;;;;;;;;;7391789;19;20346;-89
2023/08/25 04:28:29;;;;;;;0.43;0.43;;;;;;;;;;7392307;19;20755;-88
2023/08/25 04:31:28;;;;;;;0.52;0.52;;;;;;;;;;7391830;19;20914;-89
2023/08/25 04:34:07;;;;;;;0.60;0.60;;;;;;;;;;7394585;19;20347;-90
2023/08/25 04:36:45;;;;;;;0.90;0.90;;;;;;;;;;7394788;19;20348;-88
2023/08/25 04:39:13;;;;;;;0.68;0.68;;;;;;;;;;7398508;19;21358;-88
2023/08/25 04:41:41;;;;;;;0.60;0.60;;;;;;;;;;7394004;19;20408;-90
2023/08/25 04:44:07;;;;;;;0.50;0.50;;;;;;;;;;7391063;19;20361;-89
2023/08/25 04:46:34;;;;;;;0.50;0.50;;;;;;;;;;7392519;19;20360;-88
2023/08/25 04:49:01;;;;;;;1.20;0.70;;;;;;;;;;7389410;19;20349;-87
2023/08/25 04:51:28;;;;;;;0.90;0.90;;;;;;;;;;7391016;19;20440;-87
2023/08/25 04:53:54;;;;;;;0.88;0.88;;;;;;;;;;7391641;19;20348;-88
2023/08/25 04:56:21;;;;;;;1.73;0.80;;;;;;;;;;7396442;19;20380;-87
2023/08/25 04:58:48;;;;;;;0.60;0.60;;;;;;;;;;7397530;19;20380;-89
2023/08/25 05:01:15;;;;;;;1.60;0.70;;;;;;;;;;7395641;19;20782;-88
2023/08/25 05:03:44;;;;;;;0.82;0.82;;;;;;;;;;7399200;19;20969;-87
2023/08/25 05:06:11;;;;;;;0.90;0.90;;;;;;;;;;7397875;19;20406;-89
2023/08/25 05:08:38;;;;;;;0.50;0.50;;;;;;;;;;7394594;19;20325;-88
2023/08/25 05:11:05;;;;;;;0.65;0.65;;;;;;;;;;7398150;19;20362;-88
2023/08/25 05:13:31;;;;;;;0.50;0.50;;;;;;;;;;7399420;19;20348;-89
2023/08/25 05:15:58;;;;;;;1.20;1.10;;;;;;;;;;7402880;19;20328;-89
2023/08/25 05:18:25;;;;;;;0.50;0.50;;;;;;;;;;7398819;19;20348;-88
2023/08/25 05:20:59;;;;;;;1.50;0.70;;;;;;;;;;7399516;19;20333;-88
2023/08/25 05:23:27;;;;;;;0.60;0.60;;;;;;;;;;7399927;19;20349;-88
2023/08/25 05:25:54;;;;;;;1.10;1.00;;;;;;;;;;7399482;19;20352;-88
2023/08/25 05:28:21;;;;;;;0.60;0.60;;;;;;;;;;7399734;19;20361;-88
2023/08/25 05:30:49;;;;;;;0.80;0.80;;;;;;;;;;7400592;19;20365;-89
2023/08/25 05:33:16;;;;;;;0.50;0.50;;;;;;;;;;7400217;19;20356;-89
2023/08/25 05:35:43;;;;;;;0.40;0.40;;;;;;;;;;7400753;19;20340;-89
2023/08/25 05:38:09;;;;;;;0.63;0.63;;;;;;;;;;7399377;19;20870;-89
2023/08/25 05:40:36;;;;;;;0.80;0.70;;;;;;;;;;7400002;19;20356;-88
2023/08/25 05:43:03;;;;;;;0.60;0.60;;;;;;;;;;7402452;19;20664;-89
2023/08/25 05:45:29;;;;;;;0.50;0.50;;;;;;;;;;7402612;19;20771;-88
2023/08/25 05:47:56;;;;;;;0.98;0.88;;;;;;;;;;7399171;19;20418;-88
2023/08/25 05:50:23;;;;;;;0.70;0.70;;;;;;;;;;7395768;19;20344;-87
2023/08/25 05:52:49;;;;;;;2.63;1.23;;;;;;;;;;7400402;19;20365;-88
2023/08/25 05:55:16;;;;;;;0.63;0.63;;;;;;;;;;7401897;19;20353;-88
2023/08/25 05:57:43;;;;;;;0.50;0.50;;;;;;;;;;7402518;19;20401;-88
2023/08/25 06:00:11;;;;;;;0.60;0.60;;;;;;;;;;7401835;19;20349;-89
2023/08/25 06:02:37;;;;;;;0.77;0.77;;;;;;;;;;7399893;19;20389;-88
2023/08/25 06:05:05;;;;;;;0.65;0.65;;;;;;;;;;7402475;19;20694;-87
2023/08/25 06:07:31;;;;;;;0.70;0.70;;;;;;;;;;7401036;19;20439;-87
2023/08/25 06:09:58;;;;;;;1.08;1.08;;;;;;;;;;7401385;19;20373;-87
2023/08/25 06:12:25;;;;;;;0.80;0.80;;;;;;;;;;7402174;19;20356;-88
2023/08/25 06:14:52;;;;;;;2.50;0.82;;;;;;;;;;7403615;19;20657;-88
2023/08/25 06:17:18;;;;;;;0.80;0.80;;;;;;;;;;7402462;19;20345;-88
2023/08/25 06:19:45;;;;;;;0.70;0.70;;;;;;;;;;7401000;19;20352;-88
2023/08/25 06:22:12;;;;;;;0.80;0.80;;;;;;;;;;7402562;19;20353;-87
2023/08/25 06:24:38;;;;;;;0.90;0.90;;;;;;;;;;7412084;19;20392;-89
2023/08/25 06:27:05;;;;;;;0.88;0.88;;;;;;;;;;7412116;19;20884;-88
2023/08/25 06:29:32;;;;;;;1.60;1.50;;;;;;;;;;7419208;19;20357;-89
2023/08/25 06:31:58;;;;;;;1.80;0.90;;;;;;;;;;7416628;19;20364;-88
2023/08/25 06:34:25;;;;;;;0.60;0.60;;;;;;;;;;7408907;19;20345;-87
2023/08/25 06:36:52;;;;;;;0.60;0.60;;;;;;;;;;7408774;19;20946;-88
2023/08/25 06:39:18;;;;;;;0.60;0.60;;;;;;;;;;7402673;19;20348;-87
2023/08/25 06:41:45;;;;;;;0.88;0.88;;;;;;;;;;7397205;19;20753;-87
2023/08/25 06:44:15;;;;;;;0.80;0.80;;;;;;;;;;7400099;19;20348;-87
2023/08/25 06:46:42;;;;;;;0.40;0.40;;;;;;;;;;7398041;19;20377;-87
2023/08/25 06:49:11;;;;;;;0.50;0.50;;;;;;;;;;7397535;19;20451;-88
2023/08/25 06:51:38;;;;;;;0.63;0.63;;;;;;;;;;7398613;19;20404;-88
2023/08/25 06:54:05;;;;;;;0.60;0.60;;;;;;;;;;7397773;19;20353;-87
2023/08/25 06:56:33;;;;;;;0.77;0.77;;;;;;;;;;7396993;19;20352;-88
2023/08/25 06:58:59;;;;;;;0.80;0.80;;;;;;;;;;7397701;19;20428;-87
2023/08/25 07:01:27;;;;;;;0.60;0.60;;;;;;;;;;7394977;19;20867;-86
2023/08/25 07:03:53;;;;;;;2.00;0.70;;;;;;;;;;7396273;19;20368;-87
2023/08/25 07:06:20;;;;;;;1.00;0.85;;;;;;;;;;7405463;19;20361;-87
2023/08/25 07:08:47;;;;;;;0.47;0.47;;;;;;;;;;7405547;19;20348;-89
2023/08/25 07:11:13;;;;;;;0.75;0.75;;;;;;;;;;7403974;19;20395;-88
2023/08/25 07:13:40;;;;;;;2.40;0.90;;;;;;;;;;7407139;19;20352;-86
2023/08/25 07:16:07;;;;;;;0.65;0.65;;;;;;;;;;7406000;19;20348;-87
2023/08/25 07:18:34;;;;;;;0.70;0.70;;;;;;;;;;7404746;19;20377;-88
2023/08/25 07:21:04;;;;;;;1.77;0.85;;;;;;;;;;7406390;19;20357;-87
2023/08/25 07:23:30;;;;;;;0.70;0.70;;;;;;;;;;7407651;19;20375;-87
2023/08/25 07:25:57;;;;;;;0.50;0.50;;;;;;;;;;7403591;19;20340;-87
2023/08/25 07:28:24;;;;;;;0.60;0.60;;;;;;;;;;7404577;19;20377;-87
2023/08/25 07:30:51;;;;;;;0.57;0.57;;;;;;;;;;7405490;19;20340;-87
2023/08/25 07:33:18;;;;;;;0.60;0.60;;;;;;;;;;7404084;19;20344;-87
2023/08/25 07:35:46;;;;;;;0.55;0.55;;;;;;;;;;7402838;19;20347;-87
2023/08/25 07:38:13;;;;;;;0.70;0.70;;;;;;;;;;7400917;19;20344;-87
2023/08/25 07:40:40;;;;;;;0.68;0.68;;;;;;;;;;7401773;19;20325;-86
2023/08/25 07:43:07;;;;;;;1.05;0.98;;;;;;;;;;7402415;19;20357;-87
2023/08/25 07:45:35;;;;;;;0.73;0.73;;;;;;;;;;7404633;19;20337;-87
2023/08/25 07:48:02;;;;;;;0.57;0.57;;;;;;;;;;7402652;19;20365;-87
2023/08/25 07:50:30;;;;;;;0.60;0.60;;;;;;;;;;7401007;19;20810;-88
2023/08/25 07:52:57;;;;;;;0.80;0.80;;;;;;;;;;7403604;19;20336;-86
2023/08/25 07:55:24;;;;;;;1.80;0.85;;;;;;;;;;7402197;19;20348;-87
2023/08/25 07:57:52;;;;;;;0.90;0.90;;;;;;;;;;7400934;19;20373;-86
2023/08/25 08:00:20;;;;;;;0.73;0.73;;;;;;;;;;7404743;19;20356;-87
2023/08/25 08:02:49;;;;;;;1.00;0.90;;;;;;;;;;7405091;19;20373;-87
2023/08/25 08:05:18;;;;;;;0.68;0.68;;;;;;;;;;7402046;19;20356;-89
2023/08/25 08:07:46;;;;;;;1.30;0.90;;;;;;;;;;7403235;19;20345;-88
2023/08/25 08:10:13;;;;;;;1.00;0.85;;;;;;;;;;7403225;19;20369;-87
2023/08/25 08:12:44;;;;;;;0.95;0.95;;;;;;;;;;7401279;19;20353;-87
2023/08/25 08:15:12;;;;;;;1.05;0.80;;;;;;;;;;7399737;19;20431;-87
2023/08/25 08:17:39;;;;;;;0.70;0.70;;;;;;;;;;7395115;19;20349;-85
2023/08/25 08:20:11;;;;;;;0.90;0.90;;;;;;;;;;7394776;19;20907;-86
2023/08/25 08:22:40;;;;;;;0.65;0.65;;;;;;;;;;7411668;19;20388;-87
2023/08/25 08:25:11;;;;;;;0.50;0.50;;;;;;;;;;7427139;19;20356;-88
2023/08/25 08:27:39;;;;;;;0.98;0.75;;;;;;;;;;7427680;19;20341;-87
2023/08/25 08:30:07;;;;;;;2.20;1.20;;;;;;;;;;7407604;19;20890;-86
2023/08/25 08:32:38;;;;;;;0.80;0.80;;;;;;;;;;7397156;19;20368;-86
2023/08/25 08:35:08;;;;;;;1.10;1.03;;;;;;;;;;7399122;19;20337;-85
2023/08/25 08:37:41;;;;;;;0.93;0.93;;;;;;;;;;7395589;19;20377;-87
2023/08/25 08:40:12;;;;;;;0.60;0.60;;;;;;;;;;7398951;19;20408;-87
2023/08/25 08:42:39;;;;;;;0.80;0.80;;;;;;;;;;7397051;19;20325;-87
2023/08/25 08:45:09;;;;;;;0.50;0.50;;;;;;;;;;7399458;19;20339;-86
2023/08/25 08:47:37;;;;;;;0.93;0.93;;;;;;;;;;7398404;19;20353;-85
2023/08/25 08:50:06;;;;;;;1.30;1.17;;;;;;;;;;7394680;19;20364;-88
2023/08/25 08:52:33;;;;;;;1.83;0.83;;;;;;;;;;7395973;19;20356;-90
2023/08/25 08:55:00;;;;;;;0.90;0.82;;;;;;;;;;7397969;19;20349;-88
2023/08/25 08:57:27;;;;;;;0.60;0.60;;;;;;;;;;7396863;19;20354;-88
2023/08/25 08:59:58;;;;;;;1.20;1.10;;;;;;;;;;7397497;19;20355;-87
2023/08/25 09:02:28;;;;;;;0.60;0.60;;;;;;;;;;7394935;19;20389;-87
2023/08/25 09:04:59;;;;;;;0.75;0.75;;;;;;;;;;7397954;19;20351;-88
2023/08/25 09:07:31;;;;;;;0.95;0.93;;;;;;;;;;7396410;19;20345;-88
2023/08/25 09:09:58;;;;;;;0.57;0.57;;;;;;;;;;7397159;19;20365;-88
2023/08/25 09:12:25;;;;;;;2.13;2.03;;;;;;;;;;7395488;19;20419;-88
2023/08/25 09:14:52;;;;;;;1.90;1.80;;;;;;;;;;7398865;19;20145;-87
2023/08/25 09:17:19;;;;;;;2.15;2.05;;;;;;;;;;7399629;19;20168;-87
2023/08/25 09:19:45;;;;;;;1.55;1.55;;;;;;;;;;7398405;19;20143;-88
2023/08/25 09:22:15;;;;;;;2.63;2.53;;;;;;;;;;7399471;19;20133;-88
2023/08/25 09:24:43;;;;;;;2.45;2.35;;;;;;;;;;7400973;19;20125;-88
2023/08/25 09:27:21;;;;;;;2.78;2.67;;;;;;;;;;7399097;19;20241;-88
2023/08/25 09:29:56;;;;;;;2.80;2.70;;;;;;;;;;7399170;19;20605;-88
2023/08/25 09:32:24;;;;;;;2.78;2.67;;;;;;;;;;7399390;19;20133;-88
2023/08/25 09:34:50;;;;;;;4.15;3.95;;;;;;;;;;7397246;19;20161;-88
2023/08/25 09:37:17;;;;;;;6.80;2.97;;;;;;;;;;7397815;19;20225;-86
2023/08/25 09:39:44;;;;;;;3.40;3.25;;;;;;;;;;7398968;19;20584;-87
2023/08/25 09:42:11;;;;;;;3.85;3.65;;;;;;;;;;7397005;19;20180;-87
2023/08/25 09:44:38;;;;;;;3.05;2.95;;;;;;;;;;7399923;19;20200;-89
2023/08/25 09:47:09;;;;;;;3.33;3.20;;;;;;;;;;7399666;19;20153;-88
2023/08/25 09:49:39;;;;;;;4.07;3.88;;;;;;;;;;7399799;19;20161;-88
2023/08/25 09:52:06;;;;;;;3.33;3.22;;;;;;;;;;7397478;19;20701;-89
2023/08/25 09:54:34;;;;;;;4.22;2.72;;;;;;;;;;7397008;19;20137;-88
2023/08/25 09:57:01;;;;;;;3.88;3.70;;;;;;;;;;7397306;19;20169;-89
2023/08/25 09:59:27;;;;;;;3.38;3.22;;;;;;;;;;7397426;19;20133;-88
2023/08/25 10:01:55;;;;;;;3.60;3.42;;;;;;;;;;7394899;19;20129;-85
2023/08/25 10:04:21;;;;;;;3.80;3.60;;;;;;;;;;7396480;19;20158;-86
2023/08/25 10:06:48;;;;;;;3.85;3.67;;;;;;;;;;7395845;19;20129;-86
2023/08/25 10:09:15;;;;;;;2.85;2.75;;;;;;;;;;7395983;19;20655;-85
2023/08/25 10:11:48;;;;;;;3.33;3.22;;;;;;;;;;7396188;19;20144;-86
2023/08/25 10:14:15;;;;;;;3.78;3.58;;;;;;;;;;7396528;19;20232;-85
2023/08/25 10:16:52;;;;;;;3.75;3.63;;;;;;;;;;7395319;19;20140;-86
2023/08/25 10:19:26;;;;;;;3.15;3.05;;;;;;;;;;7397345;19;20200;-85
2023/08/25 10:21:55;;;;;;;3.47;3.38;;;;;;;;;;7396117;19;20207;-86
2023/08/25 10:24:23;;;;;;;3.40;3.30;;;;;;;;;;7397269;19;20148;-85
2023/08/25 10:26:51;;;;;;;3.40;3.30;;;;;;;;;;7395373;19;20149;-84
2023/08/25 10:29:20;;;;;;;2.20;2.10;;;;;;;;;;7393758;19;20922;-85
2023/08/25 10:31:46;;;;;;;2.17;2.08;;;;;;;;;;7396523;19;20144;-85
2023/08/25 10:34:37;;;;;;;3.90;3.75;;;;;;;;;;7399705;19;20156;-86
2023/08/25 10:37:09;;;;;;;2.10;2.00;;;;;;;;;;7398087;19;20252;-86
2023/08/25 10:39:49;;;;;;;2.55;2.45;;;;;;;;;;7400768;19;20155;-86
2023/08/25 10:42:25;;;;;;;2.97;2.88;;;;;;;;;;7405925;19;20152;-86
2023/08/25 10:45:11;;;;;;;2.53;2.42;;;;;;;;;;7407260;19;20145;-86
2023/08/25 10:47:42;;;;;;;3.70;3.60;;;;;;;;;;7405237;19;20176;-86
2023/08/25 10:50:09;;;;;;;2.65;2.55;;;;;;;;;;7405850;19;20164;-86
2023/08/25 10:52:48;;;;;;;3.35;3.25;;;;;;;;;;7403692;19;20233;-86
2023/08/25 10:55:32;;;;;;;3.30;3.20;;;;;;;;;;7406427;19;20180;-84
2023/08/25 10:58:03;;;;;;;2.58;2.47;;;;;;;;;;7404948;19;20160;-86
2023/08/25 11:00:33;;;;;;;3.03;2.92;;;;;;;;;;7405171;19;20144;-86
2023/08/25 11:03:01;;;;;;;2.20;2.13;;;;;;;;;;7405226;19;20129;-86
2023/08/25 11:05:34;;;;;;;2.90;2.80;;;;;;;;;;7406972;19;20137;-87
2023/08/25 11:08:03;;;;;;;2.17;2.13;;;;;;;;;;7405564;19;20176;-86
2023/08/25 11:10:35;;;;;;;4.30;4.00;;;;;;;;;;7406693;19;20412;-86
2023/08/25 11:13:08;;;;;;;2.83;2.72;;;;;;;;;;7406195;19;20161;-86
2023/08/25 11:15:39;;;;;;;3.28;3.17;;;;;;;;;;7403358;19;20148;-85
2023/08/25 11:18:07;;;;;;;3.80;3.60;;;;;;;;;;7406182;19;20205;-86
2023/08/25 11:20:34;;;;;;;3.13;2.95;;;;;;;;;;7405225;19;20159;-86
2023/08/25 11:23:00;;;;;;;2.17;2.08;;;;;;;;;;7403741;19;20043;-86
2023/08/25 11:25:44;;;;;;;0.70;0.70;;;;;;;;;;7403364;19;20366;-86
2023/08/25 11:28:12;;;;;;;1.00;0.90;;;;;;;;;;7400386;19;20393;-86
2023/08/25 11:30:39;;;;;;;0.68;0.68;;;;;;;;;;7399441;19;20369;-86
2023/08/25 11:33:06;;;;;;;0.75;0.70;;;;;;;;;;7403263;19;20364;-86
2023/08/25 11:35:33;;;;;;;1.63;1.63;;;;;;;;;;7405230;19;20141;-86
2023/08/25 11:38:01;;;;;;;2.97;2.88;;;;;;;;;;7403862;19;20220;-87
2023/08/25 11:40:30;;;;;;;2.50;2.40;;;;;;;;;;7405444;19;20754;-85
2023/08/25 11:42:56;;;;;;;3.92;3.75;;;;;;;;;;7406925;19;20145;-86
2023/08/25 11:45:27;;;;;;;0.65;0.65;;;;;;;;;;7405806;19;20770;-86
2023/08/25 11:47:55;;;;;;;0.77;0.77;;;;;;;;;;7403112;19;20341;-85
2023/08/25 11:50:23;;;;;;;0.80;0.80;;;;;;;;;;7403835;19;20352;-84
2023/08/25 11:52:50;;;;;;;0.80;0.80;;;;;;;;;;7399722;19;20365;-88
2023/08/25 11:55:17;;;;;;;2.28;2.17;;;;;;;;;;7402867;19;20165;-86
2023/08/25 11:57:49;;;;;;;4.30;3.08;;;;;;;;;;7402504;19;20224;-86
2023/08/25 12:00:17;;;;;;;2.45;2.35;;;;;;;;;;7403943;19;20152;-86
2023/08/25 12:02:55;;;;;;;0.93;0.93;;;;;;;;;;7419172;19;20121;-87
2023/08/25 12:05:22;;;;;;;4.85;3.80;;;;;;;;;;7418291;19;20164;-85
2023/08/25 12:07:51;;;;;;;1.48;1.38;;;;;;;;;;7420404;19;20360;-86
2023/08/25 12:10:22;;;;;;;2.90;2.75;;;;;;;;;;7425941;19;20137;-85
2023/08/25 12:12:52;;;;;;;3.42;3.33;;;;;;;;;;7427331;19;20149;-85
2023/08/25 12:15:19;;;;;;;1.35;1.35;;;;;;;;;;7427551;19;20140;-85
2023/08/25 12:17:47;;;;;;;2.95;2.85;;;;;;;;;;7425417;19;20173;-85
2023/08/25 12:20:16;;;;;;;2.53;2.42;;;;;;;;;;7422892;19;20132;-86
2023/08/25 12:23:00;;;;;;;2.78;2.67;;;;;;;;;;7419068;19;20163;-85
2023/08/25 12:25:30;;;;;;;0.93;0.88;;;;;;;;;;7426220;19;20448;-84
2023/08/25 12:27:57;;;;;;;1.45;1.35;;;;;;;;;;7409785;19;20351;-87
2023/08/25 12:30:25;;;;;;;0.80;0.70;;;;;;;;;;7407095;19;21006;-85
2023/08/25 12:32:52;;;;;;;0.80;0.80;;;;;;;;;;7398045;19;20645;-85
2023/08/25 12:35:19;;;;;;;0.80;0.80;;;;;;;;;;7398691;19;20360;-85
2023/08/25 12:37:46;;;;;;;0.98;0.98;;;;;;;;;;7398124;19;20353;-85
2023/08/25 12:40:14;;;;;;;1.65;1.27;;;;;;;;;;7399892;19;20767;-85
2023/08/25 12:42:41;;;;;;;0.60;0.60;;;;;;;;;;7396367;19;20353;-85
2023/08/25 12:45:08;;;;;;;0.88;0.88;;;;;;;;;;7398635;19;20357;-85
2023/08/25 12:47:34;;;;;;;1.23;1.17;;;;;;;;;;7399237;19;20353;-85
2023/08/25 12:50:01;;;;;;;0.67;0.67;;;;;;;;;;7403676;19;20348;-84
2023/08/25 12:52:31;;;;;;;0.88;0.88;;;;;;;;;;7400897;19;20943;-84
2023/08/25 12:54:58;;;;;;;1.00;1.00;;;;;;;;;;7403404;19;20428;-85
2023/08/25 12:57:43;;;;;;;0.87;0.87;;;;;;;;;;7402649;19;20357;-85
2023/08/25 13:00:11;;;;;;;0.90;0.90;;;;;;;;;;7402033;19;20473;-87
2023/08/25 13:02:39;;;;;;;0.80;0.80;;;;;;;;;;7398003;19;20432;-85
2023/08/25 13:05:09;;;;;;;0.70;0.70;;;;;;;;;;7403364;19;20349;-86
2023/08/25 13:07:38;;;;;;;0.80;0.80;;;;;;;;;;7402916;19;20361;-86
2023/08/25 13:10:08;;;;;;;0.73;0.73;;;;;;;;;;7400415;19;21021;-87
2023/08/25 13:12:35;;;;;;;0.60;0.60;;;;;;;;;;7405054;19;20372;-86
2023/08/25 13:15:03;;;;;;;0.80;0.80;;;;;;;;;;7409074;19;20355;-89
2023/08/25 13:17:31;;;;;;;0.77;0.70;;;;;;;;;;7409493;19;20367;-85
2023/08/25 13:19:57;;;;;;;2.85;1.05;;;;;;;;;;7418049;19;20381;-88
2023/08/25 13:22:24;;;;;;;0.88;0.88;;;;;;;;;;7427893;19;20422;-92
2023/08/25 13:24:51;;;;;;;0.63;0.63;;;;;;;;;;7426635;19;20349;-89
2023/08/25 13:27:18;;;;;;;1.20;1.10;;;;;;;;;;7426826;19;20336;-94
2023/08/25 13:29:45;;;;;;;1.38;0.75;;;;;;;;;;7425659;19;20526;-92
2023/08/25 13:32:12;;;;;;;0.70;0.70;;;;;;;;;;7410343;19;20368;-91
2023/08/25 13:34:39;;;;;;;0.95;0.95;;;;;;;;;;7405016;19;20359;-91
2023/08/25 13:37:09;;;;;;;1.13;0.82;;;;;;;;;;7399412;19;20349;-88
2023/08/25 13:39:40;;;;;;;0.70;0.70;;;;;;;;;;7398477;19;20336;-89
2023/08/25 13:42:07;;;;;;;0.98;0.98;;;;;;;;;;7399118;19;20348;-90
2023/08/25 13:44:38;;;;;;;0.55;0.55;;;;;;;;;;7397652;19;20413;-89
2023/08/25 13:47:09;;;;;;;0.60;0.60;;;;;;;;;;7399390;19;20878;-90
2023/08/25 13:49:36;;;;;;;2.92;1.80;;;;;;;;;;7399349;19;20380;-90
2023/08/25 13:52:03;;;;;;;0.88;0.88;;;;;;;;;;7398162;19;20377;-90
2023/08/25 13:54:31;;;;;;;1.25;1.15;;;;;;;;;;7400104;19;20367;-92
2023/08/25 13:56:59;;;;;;;0.93;0.93;;;;;;;;;;7398921;19;20371;-91
2023/08/25 13:59:28;;;;;;;1.13;1.02;;;;;;;;;;7397115;19;20373;-91
2023/08/25 14:01:55;;;;;;;0.70;0.70;;;;;;;;;;7394514;19;20365;-91
2023/08/25 14:04:22;;;;;;;1.53;1.43;;;;;;;;;;7397402;19;20352;-91
2023/08/25 14:06:49;;;;;;;0.85;0.80;;;;;;;;;;7397588;19;20717;-91
2023/08/25 14:09:16;;;;;;;0.60;0.60;;;;;;;;;;7399558;19;20377;-91
2023/08/25 14:11:42;;;;;;;1.20;1.10;;;;;;;;;;7395215;19;20679;-92
2023/08/25 14:14:12;;;;;;;0.83;0.83;;;;;;;;;;7393509;19;20855;-87
2023/08/25 14:16:39;;;;;;;0.60;0.60;;;;;;;;;;7401120;19;20415;-88
2023/08/25 14:19:06;;;;;;;1.40;1.00;;;;;;;;;;7400996;19;20879;-85
2023/08/25 14:21:34;;;;;;;0.85;0.85;;;;;;;;;;7401530;19;20332;-90
2023/08/25 14:24:00;;;;;;;0.70;0.70;;;;;;;;;;7404086;19;20338;-89
2023/08/25 14:26:27;;;;;;;4.57;1.27;;;;;;;;;;7406354;19;20376;-89
2023/08/25 14:28:54;;;;;;;1.10;0.70;;;;;;;;;;7401057;19;21308;-89
2023/08/25 14:31:21;;;;;;;0.90;0.90;;;;;;;;;;7405308;19;20859;-87
2023/08/25 14:33:47;;;;;;;1.40;1.30;;;;;;;;;;7401969;19;20428;-87
2023/08/25 14:36:14;;;;;;;1.10;0.87;;;;;;;;;;7401370;19;20926;-87
2023/08/25 14:38:41;;;;;;;1.08;1.08;;;;;;;;;;7397406;19;20970;-88
2023/08/25 14:41:08;;;;;;;0.68;0.68;;;;;;;;;;7398367;19;20340;-87
2023/08/25 14:43:34;;;;;;;0.75;0.75;;;;;;;;;;7401094;19;20378;-87
2023/08/25 14:46:03;;;;;;;0.90;0.90;;;;;;;;;;7397604;19;20344;-87
2023/08/25 14:48:30;;;;;;;1.25;1.15;;;;;;;;;;7398283;19;20341;-87
2023/08/25 14:50:58;;;;;;;0.80;0.80;;;;;;;;;;7398408;19;20341;-87
2023/08/25 14:53:26;;;;;;;1.08;1.08;;;;;;;;;;7403075;19;20345;-89
2023/08/25 14:55:53;;;;;;;0.98;0.98;;;;;;;;;;7404991;19;20425;-89
2023/08/25 14:58:21;;;;;;;1.23;1.15;;;;;;;;;;7403149;19;20376;-88
2023/08/25 15:00:52;;;;;;;0.60;0.60;;;;;;;;;;7407408;19;20365;-88
2023/08/25 15:03:19;;;;;;;0.77;0.77;;;;;;;;;;7403626;19;20809;-90
2023/08/25 15:05:46;;;;;;;1.15;0.80;;;;;;;;;;7405813;19;20349;-89
2023/08/25 15:08:13;;;;;;;0.80;0.80;;;;;;;;;;7403397;19;20366;-89
2023/08/25 15:10:41;;;;;;;1.33;1.27;;;;;;;;;;7406513;19;20423;-89
2023/08/25 15:13:08;;;;;;;0.82;0.82;;;;;;;;;;7404921;19;20903;-89
2023/08/25 15:15:35;;;;;;;0.68;0.68;;;;;;;;;;7408420;19;20369;-89
2023/08/25 15:18:02;;;;;;;1.50;0.85;;;;;;;;;;7403742;19;20361;-89
2023/08/25 15:20:29;;;;;;;0.70;0.70;;;;;;;;;;7407341;19;20368;-89
2023/08/25 15:23:09;;;;;;;0.73;0.73;;;;;;;;;;7404276;19;20465;-89
2023/08/25 15:25:38;;;;;;;0.67;0.67;;;;;;;;;;7404623;19;20356;-89
2023/08/25 15:28:05;;;;;;;0.75;0.75;;;;;;;;;;7400446;19;20369;-87
2023/08/25 15:30:32;;;;;;;1.02;0.93;;;;;;;;;;7401954;19;20345;-86
2023/08/25 15:32:58;;;;;;;0.70;0.70;;;;;;;;;;7399327;19;20353;-87
2023/08/25 15:35:27;;;;;;;0.60;0.60;;;;;;;;;;7400872;19;20703;-87
2023/08/25 15:37:54;;;;;;;0.70;0.70;;;;;;;;;;7398042;19;20348;-87
2023/08/25 15:40:22;;;;;;;0.80;0.80;;;;;;;;;;7401589;19;20388;-86
2023/08/25 15:42:49;;;;;;;0.70;0.70;;;;;;;;;;7399390;19;20356;-88
2023/08/25 15:45:16;;;;;;;1.20;1.10;;;;;;;;;;7396648;19;20353;-87
2023/08/25 15:47:43;;;;;;;0.70;0.70;;;;;;;;;;7398459;19;20354;-86
2023/08/25 15:50:10;;;;;;;0.70;0.70;;;;;;;;;;7400295;19;20388;-86
2023/08/25 15:52:37;;;;;;;0.80;0.80;;;;;;;;;;7397471;19;20367;-85
2023/08/25 15:55:04;;;;;;;1.40;1.30;;;;;;;;;;7397334;19;20898;-85
2023/08/25 15:57:30;;;;;;;0.70;0.70;;;;;;;;;;7396231;19;20345;-85
2023/08/25 16:00:09;;;;;;;0.73;0.73;;;;;;;;;;7396876;19;20420;-86
2023/08/25 16:02:36;;;;;;;1.27;1.00;;;;;;;;;;7398122;19;20357;-85
2023/08/25 16:05:03;;;;;;;0.85;0.85;;;;;;;;;;7397955;19;20401;-86
2023/08/25 16:07:29;;;;;;;0.80;0.80;;;;;;;;;;7397697;19;20340;-86
2023/08/25 16:09:56;;;;;;;1.10;0.90;;;;;;;;;;7399445;19;20365;-85
2023/08/25 16:12:26;;;;;;;0.90;0.90;;;;;;;;;;7396721;19;20361;-86
2023/08/25 16:14:52;;;;;;;0.77;0.77;;;;;;;;;;7398111;19;20397;-86
2023/08/25 16:17:19;;;;;;;0.70;0.70;;;;;;;;;;7397864;19;20331;-85
2023/08/25 16:19:46;;;;;;;0.70;0.70;;;;;;;;;;7396660;19;20420;-86
2023/08/25 16:22:12;;;;;;;1.42;1.33;;;;;;;;;;7396934;19;20359;-86
2023/08/25 16:24:39;;;;;;;0.70;0.70;;;;;;;;;;7398989;19;20368;-86
2023/08/25 16:27:06;;;;;;;0.88;0.88;;;;;;;;;;7396827;19;20344;-86
2023/08/25 16:29:32;;;;;;;0.55;0.55;;;;;;;;;;7398013;19;20388;-86
2023/08/25 16:31:59;;;;;;;0.80;0.80;;;;;;;;;;7396972;19;20356;-86